Date,TemperatureHighF,TemperatureAvgF,TemperatureLowF,DewpointHighF,DewpointAvgF,DewpointLowF,HumidityHigh,HumidityAvg,HumidityLow,PressureMaxIn,PressureMinIn,WindSpeedMaxMPH,WindSpeedAvgMPH,GustSpeedMaxMPH,PrecipitationSumIn
2013-1-1,74,74,74,56,56,56,53,53,53,30.02,30.02,2,2,2,0.00
2013-1-2,74,74,74,56,56,56,53,53,53,30.02,30.02,2,2,2,0.00
2013-1-3,74,74,74,56,56,56,53,53,53,30.02,30.02,2,2,2,0.00
2013-1-4,74,74,74,56,56,56,53,53,53,30.02,30.02,2,2,2,0.00
2013-1-5,74,74,74,56,56,56,53,53,53,30.02,30.02,2,2,2,0.00
2013-1-6,74,74,74,56,56,56,53,53,53,30.02,30.02,2,2,2,0.00
2013-1-7,74,74,74,56,56,56,53,53,53,30.02,30.02,2,2,2,0.00
2013-1-8,74,74,74,56,56,56,53,53,53,30.02,30.02,2,2,2,0.00
2013-1-9,74,74,74,56,56,56,53,53,53,30.02,30.02,2,2,2,0.00
2013-1-10,74,74,74,56,56,56,53,53,53,30.02,30.02,2,2,2,0.00
2013-1-11,74,74,74,56,56,56,53,53,53,30.02,30.02,2,2,2,0.00
2013-1-12,74,74,74,56,56,56,53,53,53,30.02,30.02,2,2,2,0.00
2013-1-13,74,74,74,56,56,56,53,53,53,30.02,30.02,2,2,2,0.00
2013-1-14,74,74,74,56,56,56,53,53,53,30.02,30.02,2,2,2,0.00
2013-1-15,74,74,74,56,56,56,53,53,53,30.02,30.02,2,2,2,0.00
2013-1-16,74,74,74,56,56,56,53,53,53,30.02,30.02,2,2,2,0.00
2013-1-17,74,74,74,56,56,56,53,53,53,30.02,30.02,2,2,2,0.00
2013-1-18,74,74,74,56,56,56,53,53,53,30.02,30.02,2,2,2,0.00
2013-1-19,74,74,74,56,56,56,53,53,53,30.02,30.02,2,2,2,0.00
2013-1-20,74,74,74,56,56,56,53,53,53,30.02,30.02,2,2,2,0.00
2013-1-21,74,74,74,56,56,56,53,53,53,30.02,30.02,2,2,2,0.00
2013-1-22,74,74,74,56,56,56,53,53,53,30.02,30.02,2,2,2,0.00
2013-1-23,74,74,74,56,56,56,53,53,53,30.02,30.02,2,2,2,0.00
2013-1-24,74,74,74,56,56,56,53,53,53,30.02,30.02,2,2,2,0.00
2013-1-25,74,74,74,56,56,56,53,53,53,30.02,30.02,2,2,2,0.00
2013-1-26,74,74,74,56,56,56,53,53,53,30.02,30.02,2,2,2,0.00
2013-1-27,74,74,74,56,56,56,53,53,53,30.02,30.02,2,2,2,0.00
2013-1-28,74,74,74,56,56,56,53,53,53,30.02,30.02,2,2,2,0.00
2013-1-29,74,74,74,56,56,56,53,53,53,30.02,30.02,2,2,2,0.00
2013-1-30,74,74,74,56,56,56,53,53,53,30.02,30.02,2,2,2,0.00
2013-1-31,74,74,74,56,56,56,53,53,53,30.02,30.02,2,2,2,0.00
2013-2-1,74,74,74,56,56,56,53,53,53,30.02,30.02,2,2,2,0.00
2013-2-2,74,74,74,56,56,56,53,53,53,30.02,30.02,2,2,2,0.00
2013-2-3,74,74,74,56,56,56,53,53,53,30.02,30.02,2,2,2,0.00
2013-2-4,74,74,74,56,56,56,53,53,53,30.02,30.02,2,2,2,0.00
2013-2-5,74,74,74,56,56,56,53,53,53,30.02,30.02,2,2,2,0.00
2013-2-6,74,74,74,56,56,56,53,53,53,30.02,30.02,2,2,2,0.00
2013-2-7,74,74,74,56,56,56,53,53,53,30.02,30.02,2,2,2,0.00
2013-2-8,74,74,74,56,56,56,53,53,53,30.02,30.02,2,2,2,0.00
2013-2-9,74,74,74,56,56,56,53,53,53,30.02,30.02,2,2,2,0.00
2013-2-10,74,74,74,56,56,56,53,53,53,30.02,30.02,2,2,2,0.00
2013-2-11,74,74,74,56,56,56,53,53,53,30.02,30.02,2,2,2,0.00
2013-2-12,74,74,74,56,56,56,53,53,53,30.02,30.02,2,2,2,0.00
2013-2-14,74,74,74,56,56,56,53,53,53,30.02,30.02,2,2,2,0.00
2013-2-15,74,74,74,56,56,56,53,53,53,30.02,30.02,2,2,2,0.00
2013-2-16,74,74,74,56,56,56,53,53,53,30.02,30.02,2,2,2,0.00
2013-2-17,74,74,74,56,56,56,53,53,53,30.02,30.02,2,2,2,0.00
2013-3-2,74,74,74,56,56,56,53,53,53,29.93,29.78,20,8,28,0.00
2013-3-3,74,74,74,56,56,56,53,53,53,30.05,29.93,13,4,24,0.00
2013-3-4,74,74,74,56,56,56,53,53,53,30.17,30.02,8,3,10,0.00
2013-3-5,74,74,74,56,56,56,53,53,53,30.19,30.02,7,3,10,0.00
2013-3-6,74,74,74,56,56,56,53,53,53,29.99,29.75,26,8,37,0.00
2013-3-7,74,74,74,56,56,56,53,53,53,29.84,29.75,10,4,16,0.00
2013-3-8,74,74,74,56,56,56,53,53,53,29.84,29.69,15,5,23,0.00
2013-6-29,74,74,74,56,56,56,53,53,53,29.75,29.72,3,2,6,0.00
2013-6-30,74,74,74,56,56,56,53,53,53,29.87,29.69,12,4,18,0.00
2013-7-1,74,74,74,56,56,56,53,53,53,29.93,29.78,8,3,13,0.00
2013-7-2,74,74,74,56,56,56,53,53,53,29.90,29.78,6,2,9,0.00
2013-7-3,74,74,74,56,56,56,53,53,53,29.84,29.72,7,3,12,0.00
2013-7-4,74,74,74,56,56,56,53,53,53,29.81,29.69,9,2,12,0.00
2013-7-5,74,74,74,56,56,56,53,53,53,29.93,29.72,17,6,22,0.00
2013-7-6,74,74,74,56,56,56,53,53,53,29.90,29.81,13,4,20,0.00
2013-7-7,74,74,74,56,56,56,53,53,53,29.87,29.75,8,3,15,0.00
2013-7-8,74,74,74,56,56,56,53,53,53,29.90,29.78,9,3,14,0.00
2013-7-9,74,74,74,56,56,56,53,53,53,29.87,29.72,14,3,24,0.00
2013-7-10,74,74,74,56,56,56,53,53,53,29.75,29.66,8,3,12,0.00
2013-7-11,74,74,74,56,56,56,53,53,53,29.78,29.63,8,3,13,0.00
2013-7-12,74,74,74,56,56,56,53,53,53,29.90,29.72,7,3,10,0.00
2013-7-13,74,74,74,56,56,56,53,53,53,29.87,29.78,7,3,12,0.00
2013-7-14,74,74,74,56,56,56,53,53,53,29.87,29.78,9,3,17,0.00
2013-7-15,74,74,74,56,56,56,53,53,53,29.87,29.78,9,3,14,0.00
2013-7-16,74,74,74,56,56,56,53,53,53,29.93,29.81,10,4,17,0.00
2013-7-17,74,74,74,56,56,56,53,53,53,29.90,29.81,8,3,13,0.00
2013-7-18,74,74,74,56,56,56,53,53,53,29.90,29.81,7,3,11,0.00
2013-7-19,74,74,74,56,56,56,53,53,53,29.87,29.78,9,3,14,0.00
2013-7-20,74,74,74,56,56,56,53,53,53,29.81,29.72,7,3,12,0.00
2013-7-21,74,74,74,56,56,56,53,53,53,29.81,29.72,14,4,18,0.00
2013-7-22,74,74,74,56,56,56,53,53,53,29.81,29.72,9,4,14,0.00
2013-7-23,74,74,74,56,56,56,53,53,53,29.78,29.69,6,3,10,0.00
2013-7-24,74,74,74,56,56,56,53,53,53,29.87,29.72,7,3,12,0.00
2013-7-25,74,74,74,56,56,56,53,53,53,29.90,29.78,8,4,13,0.00
2013-7-26,74,74,74,56,56,56,53,53,53,29.87,29.78,8,3,12,0.00
2013-7-27,74,74,74,56,56,56,53,53,53,29.81,29.72,7,3,10,0.00
2013-7-28,74,74,74,56,56,56,53,53,53,29.90,29.78,6,2,9,0.00
2013-7-29,74,74,74,56,56,56,53,53,53,29.93,29.84,8,2,10,0.00
2013-7-30,74,74,74,56,56,56,53,53,53,29.84,29.75,8,4,12,0.00
2013-7-31,74,74,74,56,56,56,53,53,53,29.81,29.72,15,6,20,0.00
2013-8-1,74,74,74,56,56,56,53,53,53,29.82,29.72,12,6,19,0.00
2013-8-2,74,74,74,56,56,56,53,53,53,29.87,29.75,8,3,13,0.00
2013-8-3,74,74,74,56,56,56,53,53,53,29.90,29.78,6,2,10,0.00
2013-8-4,74,74,74,56,56,56,53,53,53,29.90,29.78,6,2,10,0.00
2013-8-5,74,74,74,56,56,56,53,53,53,29.84,29.78,7,2,10,0.00
2013-8-6,74,74,74,56,56,56,53,53,53,29.84,29.75,7,2,10,0.00
2013-8-7,74,74,74,56,56,56,53,53,53,29.84,29.72,7,2,10,0.00
2013-8-8,74,74,74,56,56,56,53,53,53,29.84,29.75,7,2,10,0.00
2013-8-9,74,74,74,56,56,56,53,53,53,29.78,29.60,18,4,27,0.00
2013-8-10,74,74,74,56,56,56,53,53,53,29.69,29.57,10,5,11,0.00
2013-8-11,74,74,74,56,56,56,53,53,53,29.78,29.69,9,5,12,0.00
2013-8-12,74,74,74,56,56,56,53,53,53,29.84,29.72,10,3,15,0.00
2013-8-13,74,74,74,56,56,56,53,53,53,29.84,29.72,8,3,13,0.00
2013-8-14,74,74,74,56,56,56,53,53,53,29.78,29.69,7,3,14,0.00
2013-8-15,74,74,74,56,56,56,53,53,53,29.84,29.72,8,3,14,0.00
2013-8-16,74,74,74,56,56,56,53,53,53,29.87,29.78,9,3,12,0.00
2013-8-17,74,74,74,56,56,56,53,53,53,29.87,29.75,7,3,12,0.00
2013-8-18,74,74,74,56,56,56,53,53,53,29.90,29.78,7,3,10,0.00
2013-8-19,74,74,74,56,56,56,53,53,53,29.87,29.75,8,3,12,0.00
2013-8-20,74,74,74,56,56,56,53,53,53,29.81,29.69,12,4,18,0.00
2013-8-21,74,74,74,56,56,56,53,53,53,29.81,29.66,17,4,26,0.00
2013-8-22,74,74,74,56,56,56,53,53,53,29.81,29.69,8,3,11,0.00
2013-8-23,74,74,74,56,56,56,53,53,53,29.84,29.72,7,3,11,0.00
2013-8-24,74,74,74,56,56,56,53,53,53,29.81,29.72,8,4,14,0.00
2013-8-25,74,74,74,56,56,56,53,53,53,29.72,29.60,20,4,28,0.00
2013-8-26,74,74,74,56,56,56,53,53,53,29.75,29.60,9,3,13,0.00
2013-8-27,74,74,74,56,56,56,53,53,53,29.72,29.55,12,4,15,0.00
2013-8-28,74,74,74,56,56,56,53,53,53,29.78,29.63,9,3,14,0.00
2013-8-29,74,74,74,56,56,56,53,53,53,29.90,29.75,7,3,12,0.00
2013-8-30,74,74,74,56,56,56,53,53,53,29.87,29.72,8,3,13,0.00
2013-8-31,74,74,74,56,56,56,53,53,53,29.87,29.75,6,2,10,0.00
2013-9-1,74,74,74,56,56,56,53,53,53,29.87,29.75,10,3,14,0.00
2013-9-2,74,74,74,56,56,56,53,53,53,29.93,29.78,8,4,10,0.00
2013-9-3,74,74,74,56,56,56,53,53,53,29.99,29.87,9,3,17,0.00
2013-9-4,74,74,74,56,56,56,53,53,53,29.96,29.87,10,3,18,0.00
2013-9-5,74,74,74,56,56,56,53,53,53,29.87,29.72,9,3,15,0.00
2013-9-6,74,74,74,56,56,56,53,53,53,29.75,29.66,9,3,13,0.00
2013-9-7,74,74,74,56,56,56,53,53,53,29.90,29.72,8,3,12,0.00
2013-9-8,74,74,74,56,56,56,53,53,53,29.99,29.87,7,3,10,0.00
2013-9-9,74,74,74,56,56,56,53,53,53,29.96,29.87,14,4,20,0.00
2013-9-10,74,74,74,56,56,56,53,53,53,29.93,29.72,17,3,28,0.00
2013-9-11,74,74,74,56,56,56,53,53,53,29.84,29.72,10,4,14,0.00
2013-9-12,74,74,74,56,56,56,53,53,53,29.78,29.72,13,5,20,0.00
2013-9-13,74,74,74,56,56,56,53,53,53,29.87,29.69,8,3,13,0.00
2013-9-14,74,74,74,56,56,56,53,53,53,29.93,29.81,10,4,13,0.00
2013-9-15,74,74,74,56,56,56,53,53,53,29.84,29.60,9,4,13,0.00
2013-9-16,74,74,74,56,56,56,53,53,53,29.59,29.49,14,5,21,0.00
2013-9-17,74,74,74,56,56,56,53,53,53,29.51,29.43,15,6,28,0.00
2013-9-18,74,74,74,56,56,56,53,53,53,29.57,29.46,10,4,16,0.00
2013-9-19,74,74,74,56,56,56,53,53,53,29.60,29.49,9,4,15,0.00
2013-9-20,74,74,74,56,56,56,53,53,53,29.78,29.57,7,3,12,0.00
2013-9-21,74,74,74,56,56,56,53,53,53,29.90,29.75,8,3,12,0.00
2013-9-22,74,74,74,56,56,56,53,53,53,29.93,29.87,17,6,28,0.00
2013-9-23,74,74,74,56,56,56,53,53,53,29.90,29.78,12,4,18,0.00
2013-9-24,74,74,74,56,56,56,53,53,53,29.84,29.72,8,3,14,0.00
2013-9-25,74,74,74,56,56,56,53,53,53,29.84,29.72,7,3,12,0.00
2013-9-26,74,74,74,56,56,56,53,53,53,29.81,29.72,6,3,10,0.00
2013-9-27,74,74,74,56,56,56,53,53,53,29.81,29.72,8,2,11,0.00
2013-9-28,74,74,74,56,56,56,53,53,53,29.78,29.69,6,2,9,0.00
2013-9-29,74,74,74,56,56,56,53,53,53,29.69,29.55,10,2,17,0.00
2013-9-30,74,74,74,56,56,56,53,53,53,29.55,29.37,15,5,31,0.00
2013-10-1,74,74,74,56,56,56,53,53,53,29.57,29.40,9,3,14,0.00
2013-10-2,74,74,74,56,56,56,53,53,53,29.81,29.55,10,3,15,0.00
2013-10-3,74,74,74,56,56,56,53,53,53,29.96,29.81,9,3,13,0.00
2013-10-4,74,74,74,56,56,56,53,53,53,30.02,29.90,6,2,8,0.00
2013-10-5,74,74,74,56,56,56,53,53,53,29.96,29.78,15,3,23,0.00
2013-10-6,74,74,74,56,56,56,53,53,53,29.81,29.66,20,5,31,0.00
2013-10-7,74,74,74,56,56,56,53,53,53,29.87,29.72,9,2,11,0.00
2013-10-8,74,74,74,56,56,56,53,53,53,29.93,29.81,9,3,15,0.00
2013-10-9,74,74,74,56,56,56,53,53,53,29.87,29.78,12,4,15,0.00
2013-10-10,74,74,74,56,56,56,53,53,53,29.78,29.75,5,2,8,0.00
2013-10-11,74,74,74,56,56,56,53,53,53,29.81,29.60,16,6,26,0.00
2013-10-12,74,74,74,56,56,56,53,53,53,29.93,29.78,13,3,18,0.00
2013-10-13,74,74,74,56,56,56,53,53,53,29.93,29.84,7,2,10,0.00
2013-10-14,74,74,74,56,56,56,53,53,53,29.93,29.84,5,2,7,0.00
2013-10-15,74,74,74,56,56,56,53,53,53,29.90,29.72,5,2,6,0.00
2013-10-16,74,74,74,56,56,56,53,53,53,29.72,29.49,10,4,33,0.00
2013-10-17,74,74,74,56,56,56,53,53,53,29.75,29.57,8,2,11,0.00
2013-10-18,74,74,74,56,56,56,53,53,53,29.72,29.72,2,2,4,0.00
2013-10-20,74,74,74,56,56,56,53,53,53,30.02,29.99,5,3,5,0.00
2013-10-21,74,74,74,56,56,56,53,53,53,30.05,29.96,6,2,9,0.00
2013-10-22,74,74,74,56,56,56,53,53,53,29.99,29.93,6,2,10,0.00
2013-10-23,74,74,74,56,56,56,53,53,53,29.96,29.87,6,2,9,0.00
2013-11-16,74,74,74,56,56,56,53,53,53,29.81,29.75,7,3,8,0.00
2013-11-17,74,74,74,56,56,56,53,53,53,29.87,29.78,5,2,8,0.00
2013-11-18,74,74,74,56,56,56,53,53,53,29.78,29.49,14,4,24,0.00
2013-11-19,74,74,74,56,56,56,53,53,53,29.49,29.40,15,8,30,0.00
2013-12-5,74,74,74,56,56,56,53,53,53,29.81,29.78,5,3,6,0.00
2013-12-6,74,74,74,56,56,56,53,53,53,29.78,29.63,7,3,10,0.00
2013-12-7,74,74,74,56,56,56,53,53,53,29.96,29.66,6,3,14,0.00
2013-12-8,74,74,74,56,56,56,53,53,53,29.99,29.96,5,2,6,0.00
2013-12-12,74,74,74,56,56,56,53,53,53,29.99,29.99,3,2,4,0.00
2013-12-13,74,74,74,56,56,56,53,53,53,29.99,29.90,6,2,9,0.00
2013-12-14,74,74,74,56,56,56,53,53,53,30.08,29.93,7,2,11,0.00
2013-12-15,74,74,74,56,56,56,53,53,53,30.11,30.02,7,2,10,0.00